sensor_id;sensor_type;location;lat;lon;timestamp;P1;P2;P0
38451;PMS5003;24231;52.514;13.438;2023-01-24T00:03:02;25;23;
38451;PMS5003;24231;52.514;13.438;2023-01-24T00:05:29;32;24;
38451;PMS5003;24231;52.514;13.438;2023-01-24T00:07:59;30;25;
38451;PMS5003;24231;52.514;13.438;2023-01-24T00:10:32;17;17;
38451;PMS5003;24231;52.514;13.438;2023-01-24T00:12:59;26;25;
38451;PMS5003;24231;52.514;13.438;2023-01-24T00:15:26;29;24;
38451;PMS5003;24231;52.514;13.438;2023-01-24T00:17:54;27;24;
38451;PMS5003;24231;52.514;13.438;2023-01-24T00:20:21;31;28;
38451;PMS5003;24231;52.514;13.438;2023-01-24T00:22:48;27;24;
38451;PMS5003;24231;52.514;13.438;2023-01-24T00:25:15;22;19;
38451;PMS5003;24231;52.514;13.438;2023-01-24T00:27:42;34;32;
38451;PMS5003;24231;52.514;13.438;2023-01-24T00:30:10;30;25;
38451;PMS5003;24231;52.514;13.438;2023-01-24T00:32:38;21;20;
38451;PMS5003;24231;52.514;13.438;2023-01-24T00:35:05;28;26;
38451;PMS5003;24231;52.514;13.438;2023-01-24T00:37:33;35;32;
38451;PMS5003;24231;52.514;13.438;2023-01-24T00:40:00;35;25;
38451;PMS5003;24231;52.514;13.438;2023-01-24T00:42:27;27;25;
38451;PMS5003;24231;52.514;13.438;2023-01-24T00:44:54;22;22;
38451;PMS5003;24231;52.514;13.438;2023-01-24T00:47:22;29;26;
38451;PMS5003;24231;52.514;13.438;2023-01-24T00:49:51;28;26;
38451;PMS5003;24231;52.514;13.438;2023-01-24T00:52:18;27;22;
38451;PMS5003;24231;52.514;13.438;2023-01-24T00:54:45;25;24;
38451;PMS5003;24231;52.514;13.438;2023-01-24T00:57:13;24;22;
38451;PMS5003;24231;52.514;13.438;2023-01-24T00:59:40;25;20;
38451;PMS5003;24231;52.514;13.438;2023-01-24T01:02:07;33;19;
38451;PMS5003;24231;52.514;13.438;2023-01-24T01:04:35;28;24;
38451;PMS5003;24231;52.514;13.438;2023-01-24T01:07:03;20;18;
38451;PMS5003;24231;52.514;13.438;2023-01-24T01:09:30;24;20;
38451;PMS5003;24231;52.514;13.438;2023-01-24T01:11:57;18;18;
38451;PMS5003;24231;52.514;13.438;2023-01-24T01:14:25;20;19;
38451;PMS5003;24231;52.514;13.438;2023-01-24T01:16:52;19;16;
38451;PMS5003;24231;52.514;13.438;2023-01-24T01:19:19;19;17;
38451;PMS5003;24231;52.514;13.438;2023-01-24T01:21:45;17;15;
38451;PMS5003;24231;52.514;13.438;2023-01-24T01:24:12;27;19;
38451;PMS5003;24231;52.514;13.438;2023-01-24T01:26:39;19;16;
38451;PMS5003;24231;52.514;13.438;2023-01-24T01:29:06;35;23;
38451;PMS5003;24231;52.514;13.438;2023-01-24T01:31:34;25;22;
38451;PMS5003;24231;52.514;13.438;2023-01-24T01:34:02;24;20;
38451;PMS5003;24231;52.514;13.438;2023-01-24T01:36:29;27;23;
38451;PMS5003;24231;52.514;13.438;2023-01-24T01:38:56;19;17;
38451;PMS5003;24231;52.514;13.438;2023-01-24T01:41:24;19;17;
38451;PMS5003;24231;52.514;13.438;2023-01-24T01:43:51;19;17;
38451;PMS5003;24231;52.514;13.438;2023-01-24T01:46:19;17;16;
38451;PMS5003;24231;52.514;13.438;2023-01-24T01:48:50;24;17;
38451;PMS5003;24231;52.514;13.438;2023-01-24T01:51:20;17;16;
38451;PMS5003;24231;52.514;13.438;2023-01-24T01:53:52;24;17;
38451;PMS5003;24231;52.514;13.438;2023-01-24T01:56:24;23;19;
38451;PMS5003;24231;52.514;13.438;2023-01-24T01:58:59;19;19;
38451;PMS5003;24231;52.514;13.438;2023-01-24T02:01:31;18;14;
38451;PMS5003;24231;52.514;13.438;2023-01-24T02:04:00;27;17;
38451;PMS5003;24231;52.514;13.438;2023-01-24T02:06:38;19;18;
38451;PMS5003;24231;52.514;13.438;2023-01-24T02:09:14;16;13;
38451;PMS5003;24231;52.514;13.438;2023-01-24T02:11:45;22;16;
38451;PMS5003;24231;52.514;13.438;2023-01-24T02:14:13;12;11;
38451;PMS5003;24231;52.514;13.438;2023-01-24T02:16:44;13;10;
38451;PMS5003;24231;52.514;13.438;2023-01-24T02:19:13;14;11;
38451;PMS5003;24231;52.514;13.438;2023-01-24T02:21:49;16;11;
38451;PMS5003;24231;52.514;13.438;2023-01-24T02:24:26;15;11;
38451;PMS5003;24231;52.514;13.438;2023-01-24T02:26:58;13;13;
38451;PMS5003;24231;52.514;13.438;2023-01-24T02:29:26;15;12;
38451;PMS5003;24231;52.514;13.438;2023-01-24T02:31:54;20;16;
38451;PMS5003;24231;52.514;13.438;2023-01-24T02:34:24;13;12;
38451;PMS5003;24231;52.514;13.438;2023-01-24T02:36:53;18;15;
38451;PMS5003;24231;52.514;13.438;2023-01-24T02:39:24;20;14;
38451;PMS5003;24231;52.514;13.438;2023-01-24T02:41:58;15;12;
38451;PMS5003;24231;52.514;13.438;2023-01-24T02:44:30;15;10;
38451;PMS5003;24231;52.514;13.438;2023-01-24T02:47:03;17;14;
38451;PMS5003;24231;52.514;13.438;2023-01-24T02:49:30;17;16;
38451;PMS5003;24231;52.514;13.438;2023-01-24T02:51:57;15;10;
38451;PMS5003;24231;52.514;13.438;2023-01-24T02:54:24;12;11;
38451;PMS5003;24231;52.514;13.438;2023-01-24T02:56:52;20;18;
38451;PMS5003;24231;52.514;13.438;2023-01-24T02:59:18;19;13;
38451;PMS5003;24231;52.514;13.438;2023-01-24T03:01:47;22;17;
38451;PMS5003;24231;52.514;13.438;2023-01-24T03:04:13;21;16;
38451;PMS5003;24231;52.514;13.438;2023-01-24T03:06:41;18;12;
38451;PMS5003;24231;52.514;13.438;2023-01-24T03:09:08;18;14;
38451;PMS5003;24231;52.514;13.438;2023-01-24T03:11:36;13;10;
38451;PMS5003;24231;52.514;13.438;2023-01-24T03:14:03;16;12;
38451;PMS5003;24231;52.514;13.438;2023-01-24T03:16:31;11;10;
38451;PMS5003;24231;52.514;13.438;2023-01-24T03:18:58;15;15;
38451;PMS5003;24231;52.514;13.438;2023-01-24T03:21:26;14;12;
38451;PMS5003;24231;52.514;13.438;2023-01-24T03:23:54;24;19;
38451;PMS5003;24231;52.514;13.438;2023-01-24T03:26:21;12;11;
38451;PMS5003;24231;52.514;13.438;2023-01-24T03:28:49;16;11;
38451;PMS5003;24231;52.514;13.438;2023-01-24T03:31:16;14;14;
38451;PMS5003;24231;52.514;13.438;2023-01-24T03:33:44;17;11;
38451;PMS5003;24231;52.514;13.438;2023-01-24T03:36:10;16;15;
38451;PMS5003;24231;52.514;13.438;2023-01-24T03:38:38;22;17;
38451;PMS5003;24231;52.514;13.438;2023-01-24T03:41:06;12;12;
38451;PMS5003;24231;52.514;13.438;2023-01-24T03:43:38;13;12;
38451;PMS5003;24231;52.514;13.438;2023-01-24T03:46:06;16;13;
38451;PMS5003;24231;52.514;13.438;2023-01-24T03:48:33;11;10;
38451;PMS5003;24231;52.514;13.438;2023-01-24T03:51:01;17;13;
38451;PMS5003;24231;52.514;13.438;2023-01-24T03:53:29;18;12;
38451;PMS5003;24231;52.514;13.438;2023-01-24T03:55:58;17;14;
38451;PMS5003;24231;52.514;13.438;2023-01-24T03:58:27;19;17;
38451;PMS5003;24231;52.514;13.438;2023-01-24T04:00:56;14;11;
38451;PMS5003;24231;52.514;13.438;2023-01-24T04:03:23;22;15;
38451;PMS5003;24231;52.514;13.438;2023-01-24T04:05:50;24;18;
38451;PMS5003;24231;52.514;13.438;2023-01-24T04:08:18;22;17;
38451;PMS5003;24231;52.514;13.438;2023-01-24T04:10:46;16;14;
38451;PMS5003;24231;52.514;13.438;2023-01-24T04:13:13;17;12;
38451;PMS5003;24231;52.514;13.438;2023-01-24T04:15:41;15;12;
38451;PMS5003;24231;52.514;13.438;2023-01-24T04:18:08;20;15;
38451;PMS5003;24231;52.514;13.438;2023-01-24T04:20:36;18;15;
38451;PMS5003;24231;52.514;13.438;2023-01-24T04:23:04;19;16;
38451;PMS5003;24231;52.514;13.438;2023-01-24T04:25:32;20;17;
38451;PMS5003;24231;52.514;13.438;2023-01-24T04:28:00;17;15;
38451;PMS5003;24231;52.514;13.438;2023-01-24T04:30:28;19;18;
38451;PMS5003;24231;52.514;13.438;2023-01-24T04:32:55;18;15;
38451;PMS5003;24231;52.514;13.438;2023-01-24T04:35:24;19;16;
38451;PMS5003;24231;52.514;13.438;2023-01-24T04:37:52;19;18;
38451;PMS5003;24231;52.514;13.438;2023-01-24T04:40:23;17;16;
38451;PMS5003;24231;52.514;13.438;2023-01-24T04:42:51;16;10;
38451;PMS5003;24231;52.514;13.438;2023-01-24T04:45:18;19;17;
38451;PMS5003;24231;52.514;13.438;2023-01-24T04:47:45;23;17;
38451;PMS5003;24231;52.514;13.438;2023-01-24T04:50:13;12;11;
38451;PMS5003;24231;52.514;13.438;2023-01-24T04:52:41;18;15;
38451;PMS5003;24231;52.514;13.438;2023-01-24T04:55:08;15;12;
38451;PMS5003;24231;52.514;13.438;2023-01-24T04:57:35;19;13;
38451;PMS5003;24231;52.514;13.438;2023-01-24T05:00:03;16;11;
38451;PMS5003;24231;52.514;13.438;2023-01-24T05:02:31;17;16;
38451;PMS5003;24231;52.514;13.438;2023-01-24T05:05:00;12;12;
38451;PMS5003;24231;52.514;13.438;2023-01-24T05:07:28;18;12;
38451;PMS5003;24231;52.514;13.438;2023-01-24T05:09:55;17;15;
38451;PMS5003;24231;52.514;13.438;2023-01-24T05:12:22;16;12;
38451;PMS5003;24231;52.514;13.438;2023-01-24T05:14:49;20;16;
38451;PMS5003;24231;52.514;13.438;2023-01-24T05:17:16;13;11;
38451;PMS5003;24231;52.514;13.438;2023-01-24T05:19:43;16;16;
38451;PMS5003;24231;52.514;13.438;2023-01-24T05:22:10;22;19;
38451;PMS5003;24231;52.514;13.438;2023-01-24T05:24:37;15;11;
38451;PMS5003;24231;52.514;13.438;2023-01-24T05:27:05;16;15;
38451;PMS5003;24231;52.514;13.438;2023-01-24T05:29:32;22;17;
38451;PMS5003;24231;52.514;13.438;2023-01-24T05:31:59;23;17;
38451;PMS5003;24231;52.514;13.438;2023-01-24T05:34:26;16;16;
38451;PMS5003;24231;52.514;13.438;2023-01-24T05:36:53;15;14;
38451;PMS5003;24231;52.514;13.438;2023-01-24T05:39:20;16;12;
38451;PMS5003;24231;52.514;13.438;2023-01-24T05:41:48;21;17;
38451;PMS5003;24231;52.514;13.438;2023-01-24T05:44:15;22;17;
38451;PMS5003;24231;52.514;13.438;2023-01-24T05:46:43;35;30;
38451;PMS5003;24231;52.514;13.438;2023-01-24T05:49:10;18;16;
38451;PMS5003;24231;52.514;13.438;2023-01-24T05:51:37;18;14;
38451;PMS5003;24231;52.514;13.438;2023-01-24T05:54:05;25;19;
38451;PMS5003;24231;52.514;13.438;2023-01-24T05:56:32;21;16;
38451;PMS5003;24231;52.514;13.438;2023-01-24T05:58:59;19;16;
38451;PMS5003;24231;52.514;13.438;2023-01-24T06:01:27;12;10;
38451;PMS5003;24231;52.514;13.438;2023-01-24T06:03:54;23;15;
38451;PMS5003;24231;52.514;13.438;2023-01-24T06:06:22;17;16;
38451;PMS5003;24231;52.514;13.438;2023-01-24T06:08:51;28;22;
38451;PMS5003;24231;52.514;13.438;2023-01-24T06:11:19;14;12;
38451;PMS5003;24231;52.514;13.438;2023-01-24T06:13:47;18;18;
38451;PMS5003;24231;52.514;13.438;2023-01-24T06:16:16;24;20;
38451;PMS5003;24231;52.514;13.438;2023-01-24T06:18:44;19;16;
38451;PMS5003;24231;52.514;13.438;2023-01-24T06:21:16;21;15;
38451;PMS5003;24231;52.514;13.438;2023-01-24T06:23:55;19;16;
38451;PMS5003;24231;52.514;13.438;2023-01-24T06:26:23;21;17;
38451;PMS5003;24231;52.514;13.438;2023-01-24T06:28:51;22;19;
38451;PMS5003;24231;52.514;13.438;2023-01-24T06:31:21;19;18;
38451;PMS5003;24231;52.514;13.438;2023-01-24T06:34:03;23;17;
38451;PMS5003;24231;52.514;13.438;2023-01-24T06:36:43;16;16;
38451;PMS5003;24231;52.514;13.438;2023-01-24T06:39:22;31;24;
38451;PMS5003;24231;52.514;13.438;2023-01-24T06:41:50;16;14;
38451;PMS5003;24231;52.514;13.438;2023-01-24T06:44:18;23;22;
38451;PMS5003;24231;52.514;13.438;2023-01-24T06:46:45;21;15;
38451;PMS5003;24231;52.514;13.438;2023-01-24T06:49:12;22;21;
38451;PMS5003;24231;52.514;13.438;2023-01-24T06:51:40;18;18;
38451;PMS5003;24231;52.514;13.438;2023-01-24T06:54:08;18;16;
38451;PMS5003;24231;52.514;13.438;2023-01-24T06:56:35;19;17;
38451;PMS5003;24231;52.514;13.438;2023-01-24T06:59:02;25;17;
38451;PMS5003;24231;52.514;13.438;2023-01-24T07:01:29;19;19;
38451;PMS5003;24231;52.514;13.438;2023-01-24T07:03:56;25;21;
38451;PMS5003;24231;52.514;13.438;2023-01-24T07:06:23;24;16;
38451;PMS5003;24231;52.514;13.438;2023-01-24T07:08:50;19;17;
38451;PMS5003;24231;52.514;13.438;2023-01-24T07:11:17;24;21;
38451;PMS5003;24231;52.514;13.438;2023-01-24T07:13:44;16;14;
38451;PMS5003;24231;52.514;13.438;2023-01-24T07:16:12;26;19;
38451;PMS5003;24231;52.514;13.438;2023-01-24T07:18:39;24;16;
38451;PMS5003;24231;52.514;13.438;2023-01-24T07:21:07;22;19;
38451;PMS5003;24231;52.514;13.438;2023-01-24T07:23:35;23;19;
38451;PMS5003;24231;52.514;13.438;2023-01-24T07:26:09;26;19;
38451;PMS5003;24231;52.514;13.438;2023-01-24T07:28:37;33;24;
38451;PMS5003;24231;52.514;13.438;2023-01-24T07:31:04;23;18;
38451;PMS5003;24231;52.514;13.438;2023-01-24T07:33:33;19;17;
38451;PMS5003;24231;52.514;13.438;2023-01-24T07:36:01;29;19;
38451;PMS5003;24231;52.514;13.438;2023-01-24T07:38:37;24;20;
38451;PMS5003;24231;52.514;13.438;2023-01-24T07:41:06;30;18;
38451;PMS5003;24231;52.514;13.438;2023-01-24T07:43:33;27;18;
38451;PMS5003;24231;52.514;13.438;2023-01-24T07:46:01;29;25;
38451;PMS5003;24231;52.514;13.438;2023-01-24T07:48:29;29;24;
38451;PMS5003;24231;52.514;13.438;2023-01-24T07:50:57;24;18;
38451;PMS5003;24231;52.514;13.438;2023-01-24T07:53:25;31;25;
38451;PMS5003;24231;52.514;13.438;2023-01-24T07:55:52;37;27;
38451;PMS5003;24231;52.514;13.438;2023-01-24T07:58:20;23;19;
38451;PMS5003;24231;52.514;13.438;2023-01-24T08:00:48;23;20;
38451;PMS5003;24231;52.514;13.438;2023-01-24T08:03:15;35;30;
38451;PMS5003;24231;52.514;13.438;2023-01-24T08:05:42;30;22;
38451;PMS5003;24231;52.514;13.438;2023-01-24T08:08:10;31;25;
38451;PMS5003;24231;52.514;13.438;2023-01-24T08:10:37;26;20;
38451;PMS5003;24231;52.514;13.438;2023-01-24T08:13:04;25;22;
38451;PMS5003;24231;52.514;13.438;2023-01-24T08:15:31;25;23;
38451;PMS5003;24231;52.514;13.438;2023-01-24T08:18:00;32;27;
38451;PMS5003;24231;52.514;13.438;2023-01-24T08:20:27;26;16;
38451;PMS5003;24231;52.514;13.438;2023-01-24T08:22:54;36;26;
38451;PMS5003;24231;52.514;13.438;2023-01-24T08:25:21;33;24;
38451;PMS5003;24231;52.514;13.438;2023-01-24T08:27:49;37;29;
38451;PMS5003;24231;52.514;13.438;2023-01-24T08:30:16;40;32;
38451;PMS5003;24231;52.514;13.438;2023-01-24T08:32:43;32;30;
38451;PMS5003;24231;52.514;13.438;2023-01-24T08:35:10;33;26;
38451;PMS5003;24231;52.514;13.438;2023-01-24T08:37:37;33;27;
38451;PMS5003;24231;52.514;13.438;2023-01-24T08:40:05;49;38;
38451;PMS5003;24231;52.514;13.438;2023-01-24T08:42:35;40;27;
38451;PMS5003;24231;52.514;13.438;2023-01-24T08:45:02;40;28;
38451;PMS5003;24231;52.514;13.438;2023-01-24T08:47:30;36;30;
38451;PMS5003;24231;52.514;13.438;2023-01-24T08:49:57;40;34;
38451;PMS5003;24231;52.514;13.438;2023-01-24T08:52:25;42;33;
38451;PMS5003;24231;52.514;13.438;2023-01-24T08:54:52;40;30;
38451;PMS5003;24231;52.514;13.438;2023-01-24T08:57:19;31;25;
38451;PMS5003;24231;52.514;13.438;2023-01-24T08:59:46;37;26;
38451;PMS5003;24231;52.514;13.438;2023-01-24T09:02:14;45;38;
38451;PMS5003;24231;52.514;13.438;2023-01-24T09:04:42;49;32;
38451;PMS5003;24231;52.514;13.438;2023-01-24T09:07:09;46;33;
38451;PMS5003;24231;52.514;13.438;2023-01-24T09:09:37;46;37;
38451;PMS5003;24231;52.514;13.438;2023-01-24T09:12:04;38;31;
38451;PMS5003;24231;52.514;13.438;2023-01-24T09:14:32;40;25;
38451;PMS5003;24231;52.514;13.438;2023-01-24T09:16:59;40;31;
38451;PMS5003;24231;52.514;13.438;2023-01-24T09:19:27;37;29;
38451;PMS5003;24231;52.514;13.438;2023-01-24T09:21:54;31;27;
38451;PMS5003;24231;52.514;13.438;2023-01-24T09:24:21;33;31;
38451;PMS5003;24231;52.514;13.438;2023-01-24T09:26:49;35;32;
38451;PMS5003;24231;52.514;13.438;2023-01-24T09:29:16;44;34;
38451;PMS5003;24231;52.514;13.438;2023-01-24T09:31:44;34;26;
38451;PMS5003;24231;52.514;13.438;2023-01-24T09:34:12;41;32;
38451;PMS5003;24231;52.514;13.438;2023-01-24T09:36:39;41;29;
38451;PMS5003;24231;52.514;13.438;2023-01-24T09:39:06;42;36;
38451;PMS5003;24231;52.514;13.438;2023-01-24T09:41:38;47;37;
38451;PMS5003;24231;52.514;13.438;2023-01-24T09:44:15;38;31;
38451;PMS5003;24231;52.514;13.438;2023-01-24T09:46:49;36;29;
38451;PMS5003;24231;52.514;13.438;2023-01-24T09:49:21;42;31;
38451;PMS5003;24231;52.514;13.438;2023-01-24T09:51:58;53;33;
38451;PMS5003;24231;52.514;13.438;2023-01-24T09:54:29;40;33;
38451;PMS5003;24231;52.514;13.438;2023-01-24T09:57:03;34;29;
38451;PMS5003;24231;52.514;13.438;2023-01-24T09:59:38;41;35;
38451;PMS5003;24231;52.514;13.438;2023-01-24T10:02:13;37;29;
38451;PMS5003;24231;52.514;13.438;2023-01-24T10:04:44;49;39;
38451;PMS5003;24231;52.514;13.438;2023-01-24T10:07:15;47;37;
38451;PMS5003;24231;52.514;13.438;2023-01-24T10:09:59;41;32;
38451;PMS5003;24231;52.514;13.438;2023-01-24T10:12:40;40;30;
38451;PMS5003;24231;52.514;13.438;2023-01-24T10:15:18;35;34;
38451;PMS5003;24231;52.514;13.438;2023-01-24T10:18:01;36;28;
38451;PMS5003;24231;52.514;13.438;2023-01-24T10:20:46;42;28;
38451;PMS5003;24231;52.514;13.438;2023-01-24T10:23:24;45;36;
38451;PMS5003;24231;52.514;13.438;2023-01-24T10:25:54;42;32;
38451;PMS5003;24231;52.514;13.438;2023-01-24T10:28:28;40;32;
38451;PMS5003;24231;52.514;13.438;2023-01-24T10:31:02;45;34;
38451;PMS5003;24231;52.514;13.438;2023-01-24T10:33:35;43;36;
38451;PMS5003;24231;52.514;13.438;2023-01-24T10:36:10;40;31;
38451;PMS5003;24231;52.514;13.438;2023-01-24T10:38:41;41;25;
38451;PMS5003;24231;52.514;13.438;2023-01-24T10:41:17;46;36;
38451;PMS5003;24231;52.514;13.438;2023-01-24T10:43:48;36;28;
38451;PMS5003;24231;52.514;13.438;2023-01-24T10:46:25;38;34;
38451;PMS5003;24231;52.514;13.438;2023-01-24T10:49:10;42;30;
38451;PMS5003;24231;52.514;13.438;2023-01-24T10:51:43;43;30;
38451;PMS5003;24231;52.514;13.438;2023-01-24T10:54:47;42;32;
38451;PMS5003;24231;52.514;13.438;2023-01-24T10:57:48;44;31;
38451;PMS5003;24231;52.514;13.438;2023-01-24T11:00:19;40;35;
38451;PMS5003;24231;52.514;13.438;2023-01-24T11:02:53;34;29;
38451;PMS5003;24231;52.514;13.438;2023-01-24T11:05:22;31;24;
38451;PMS5003;24231;52.514;13.438;2023-01-24T11:07:53;31;29;
38451;PMS5003;24231;52.514;13.438;2023-01-24T11:10:25;30;26;
38451;PMS5003;24231;52.514;13.438;2023-01-24T11:12:55;36;28;
38451;PMS5003;24231;52.514;13.438;2023-01-24T11:15:24;36;28;
38451;PMS5003;24231;52.514;13.438;2023-01-24T11:17:54;32;27;
38451;PMS5003;24231;52.514;13.438;2023-01-24T11:20:27;30;23;
38451;PMS5003;24231;52.514;13.438;2023-01-24T11:23:01;28;25;
38451;PMS5003;24231;52.514;13.438;2023-01-24T11:25:30;28;26;
38451;PMS5003;24231;52.514;13.438;2023-01-24T11:27:58;30;24;
38451;PMS5003;24231;52.514;13.438;2023-01-24T11:30:25;46;37;
38451;PMS5003;24231;52.514;13.438;2023-01-24T11:32:55;43;36;
38451;PMS5003;24231;52.514;13.438;2023-01-24T11:35:32;32;26;
38451;PMS5003;24231;52.514;13.438;2023-01-24T11:38:08;37;29;
38451;PMS5003;24231;52.514;13.438;2023-01-24T11:40:44;35;28;
38451;PMS5003;24231;52.514;13.438;2023-01-24T11:43:25;40;30;
38451;PMS5003;24231;52.514;13.438;2023-01-24T11:46:06;36;23;
38451;PMS5003;24231;52.514;13.438;2023-01-24T11:48:47;28;24;
38451;PMS5003;24231;52.514;13.438;2023-01-24T11:51:21;31;28;
38451;PMS5003;24231;52.514;13.438;2023-01-24T11:54:03;43;32;
38451;PMS5003;24231;52.514;13.438;2023-01-24T11:56:42;31;21;
38451;PMS5003;24231;52.514;13.438;2023-01-24T11:59:20;30;27;
38451;PMS5003;24231;52.514;13.438;2023-01-24T12:02:00;31;24;
38451;PMS5003;24231;52.514;13.438;2023-01-24T12:04:49;25;22;
38451;PMS5003;24231;52.514;13.438;2023-01-24T12:07:31;30;27;
38451;PMS5003;24231;52.514;13.438;2023-01-24T12:10:16;28;22;
38451;PMS5003;24231;52.514;13.438;2023-01-24T12:12:53;29;28;
38451;PMS5003;24231;52.514;13.438;2023-01-24T12:15:34;29;22;
38451;PMS5003;24231;52.514;13.438;2023-01-24T12:18:25;37;31;
38451;PMS5003;24231;52.514;13.438;2023-01-24T12:21:07;33;24;
38451;PMS5003;24231;52.514;13.438;2023-01-24T12:23:38;31;28;
38451;PMS5003;24231;52.514;13.438;2023-01-24T12:26:14;34;27;
38451;PMS5003;24231;52.514;13.438;2023-01-24T12:28:47;35;28;
38451;PMS5003;24231;52.514;13.438;2023-01-24T12:31:24;32;27;
38451;PMS5003;24231;52.514;13.438;2023-01-24T12:33:57;32;29;
38451;PMS5003;24231;52.514;13.438;2023-01-24T12:36:32;31;26;
38451;PMS5003;24231;52.514;13.438;2023-01-24T12:39:10;30;24;
38451;PMS5003;24231;52.514;13.438;2023-01-24T12:41:41;32;26;
38451;PMS5003;24231;52.514;13.438;2023-01-24T12:44:25;33;28;
38451;PMS5003;24231;52.514;13.438;2023-01-24T12:47:00;32;26;
38451;PMS5003;24231;52.514;13.438;2023-01-24T12:49:39;30;26;
38451;PMS5003;24231;52.514;13.438;2023-01-24T12:52:18;36;29;
38451;PMS5003;24231;52.514;13.438;2023-01-24T12:54:51;34;23;
38451;PMS5003;24231;52.514;13.438;2023-01-24T12:57:24;31;23;
38451;PMS5003;24231;52.514;13.438;2023-01-24T12:59:55;34;29;
38451;PMS5003;24231;52.514;13.438;2023-01-24T13:02:35;29;24;
38451;PMS5003;24231;52.514;13.438;2023-01-24T13:05:20;31;28;
38451;PMS5003;24231;52.514;13.438;2023-01-24T13:08:00;42;33;
38451;PMS5003;24231;52.514;13.438;2023-01-24T13:10:41;47;31;
38451;PMS5003;24231;52.514;13.438;2023-01-24T13:13:18;28;27;
38451;PMS5003;24231;52.514;13.438;2023-01-24T13:15:54;22;20;
38451;PMS5003;24231;52.514;13.438;2023-01-24T13:18:36;39;32;
38451;PMS5003;24231;52.514;13.438;2023-01-24T13:21:14;42;32;
38451;PMS5003;24231;52.514;13.438;2023-01-24T13:23:53;37;28;
38451;PMS5003;24231;52.514;13.438;2023-01-24T13:26:39;42;33;
38451;PMS5003;24231;52.514;13.438;2023-01-24T13:29:20;36;30;
38451;PMS5003;24231;52.514;13.438;2023-01-24T13:31:59;34;28;
38451;PMS5003;24231;52.514;13.438;2023-01-24T13:34:33;30;25;
38451;PMS5003;24231;52.514;13.438;2023-01-24T13:37:02;24;23;
38451;PMS5003;24231;52.514;13.438;2023-01-24T13:39:32;34;29;
38451;PMS5003;24231;52.514;13.438;2023-01-24T13:42:03;37;30;
38451;PMS5003;24231;52.514;13.438;2023-01-24T13:44:32;29;24;
38451;PMS5003;24231;52.514;13.438;2023-01-24T13:47:00;32;28;
38451;PMS5003;24231;52.514;13.438;2023-01-24T13:50:21;33;25;
38451;PMS5003;24231;52.514;13.438;2023-01-24T13:52:50;33;27;
38451;PMS5003;24231;52.514;13.438;2023-01-24T13:56:23;34;29;
38451;PMS5003;24231;52.514;13.438;2023-01-24T13:58:51;33;24;
38451;PMS5003;24231;52.514;13.438;2023-01-24T14:01:19;32;25;
38451;PMS5003;24231;52.514;13.438;2023-01-24T14:03:56;39;25;
38451;PMS5003;24231;52.514;13.438;2023-01-24T14:06:26;33;27;
38451;PMS5003;24231;52.514;13.438;2023-01-24T14:09:21;28;23;
38451;PMS5003;24231;52.514;13.438;2023-01-24T14:11:53;32;22;
38451;PMS5003;24231;52.514;13.438;2023-01-24T14:14:27;28;23;
38451;PMS5003;24231;52.514;13.438;2023-01-24T14:16:59;39;25;
38451;PMS5003;24231;52.514;13.438;2023-01-24T14:19:30;32;23;
38451;PMS5003;24231;52.514;13.438;2023-01-24T14:22:03;32;27;
38451;PMS5003;24231;52.514;13.438;2023-01-24T14:24:48;28;22;
38451;PMS5003;24231;52.514;13.438;2023-01-24T14:27:20;39;32;
38451;PMS5003;24231;52.514;13.438;2023-01-24T14:29:51;31;25;
38451;PMS5003;24231;52.514;13.438;2023-01-24T14:32:24;28;22;
38451;PMS5003;24231;52.514;13.438;2023-01-24T14:34:58;25;21;
38451;PMS5003;24231;52.514;13.438;2023-01-24T14:37:35;36;29;
38451;PMS5003;24231;52.514;13.438;2023-01-24T14:40:10;32;27;
38451;PMS5003;24231;52.514;13.438;2023-01-24T14:42:45;36;25;
38451;PMS5003;24231;52.514;13.438;2023-01-24T14:45:12;28;23;
38451;PMS5003;24231;52.514;13.438;2023-01-24T14:47:45;35;25;
38451;PMS5003;24231;52.514;13.438;2023-01-24T14:50:22;33;29;
38451;PMS5003;24231;52.514;13.438;2023-01-24T14:52:52;30;27;
38451;PMS5003;24231;52.514;13.438;2023-01-24T14:55:28;37;32;
38451;PMS5003;24231;52.514;13.438;2023-01-24T14:58:19;30;24;
38451;PMS5003;24231;52.514;13.438;2023-01-24T15:00:48;30;24;
38451;PMS5003;24231;52.514;13.438;2023-01-24T15:03:17;31;25;
38451;PMS5003;24231;52.514;13.438;2023-01-24T15:05:49;32;23;
38451;PMS5003;24231;52.514;13.438;2023-01-24T15:08:19;33;30;
38451;PMS5003;24231;52.514;13.438;2023-01-24T15:10:51;38;29;
38451;PMS5003;24231;52.514;13.438;2023-01-24T15:13:23;36;25;
38451;PMS5003;24231;52.514;13.438;2023-01-24T15:15:52;37;29;
38451;PMS5003;24231;52.514;13.438;2023-01-24T15:18:26;32;27;
38451;PMS5003;24231;52.514;13.438;2023-01-24T15:21:04;37;28;
38451;PMS5003;24231;52.514;13.438;2023-01-24T15:23:32;30;27;
38451;PMS5003;24231;52.514;13.438;2023-01-24T15:26:20;34;28;
38451;PMS5003;24231;52.514;13.438;2023-01-24T15:28:49;24;23;
38451;PMS5003;24231;52.514;13.438;2023-01-24T15:31:18;32;30;
38451;PMS5003;24231;52.514;13.438;2023-01-24T15:33:46;40;36;
38451;PMS5003;24231;52.514;13.438;2023-01-24T15:36:22;34;23;
38451;PMS5003;24231;52.514;13.438;2023-01-24T15:38:52;27;22;
38451;PMS5003;24231;52.514;13.438;2023-01-24T15:41:22;34;24;
38451;PMS5003;24231;52.514;13.438;2023-01-24T15:43:54;33;23;
38451;PMS5003;24231;52.514;13.438;2023-01-24T15:46:30;36;27;
38451;PMS5003;24231;52.514;13.438;2023-01-24T15:49:00;35;28;
38451;PMS5003;24231;52.514;13.438;2023-01-24T15:51:31;28;23;
38451;PMS5003;24231;52.514;13.438;2023-01-24T15:54:00;32;27;
38451;PMS5003;24231;52.514;13.438;2023-01-24T15:56:28;32;22;
38451;PMS5003;24231;52.514;13.438;2023-01-24T15:58:56;30;24;
38451;PMS5003;24231;52.514;13.438;2023-01-24T16:01:27;33;29;
38451;PMS5003;24231;52.514;13.438;2023-01-24T16:03:55;37;29;
38451;PMS5003;24231;52.514;13.438;2023-01-24T16:06:35;39;35;
38451;PMS5003;24231;52.514;13.438;2023-01-24T16:09:02;30;24;
38451;PMS5003;24231;52.514;13.438;2023-01-24T16:11:29;33;27;
38451;PMS5003;24231;52.514;13.438;2023-01-24T16:13:57;35;29;
38451;PMS5003;24231;52.514;13.438;2023-01-24T16:16:25;37;28;
38451;PMS5003;24231;52.514;13.438;2023-01-24T16:18:52;25;21;
38451;PMS5003;24231;52.514;13.438;2023-01-24T16:21:19;30;28;
38451;PMS5003;24231;52.514;13.438;2023-01-24T16:23:47;32;29;
38451;PMS5003;24231;52.514;13.438;2023-01-24T16:26:17;37;30;
38451;PMS5003;24231;52.514;13.438;2023-01-24T16:28:47;28;26;